sensor_id;sensor_type;location;lat;lon;timestamp;P1;P2;P0
54553;PMS5003;40450;55.848;-3.572;2023-04-23T00:02:19;22;20;
54553;PMS5003;40450;55.848;-3.572;2023-04-23T00:04:50;22;18;
54553;PMS5003;40450;55.848;-3.572;2023-04-23T00:07:20;25;22;
54553;PMS5003;40450;55.848;-3.572;2023-04-23T00:09:51;20;19;
54553;PMS5003;40450;55.848;-3.572;2023-04-23T00:12:21;23;21;
54553;PMS5003;40450;55.848;-3.572;2023-04-23T00:14:52;19;17;
54553;PMS5003;40450;55.848;-3.572;2023-04-23T00:17:22;15;15;
54553;PMS5003;40450;55.848;-3.572;2023-04-23T00:19:53;25;21;
54553;PMS5003;40450;55.848;-3.572;2023-04-23T00:22:23;17;16;
54553;PMS5003;40450;55.848;-3.572;2023-04-23T00:24:54;23;18;
54553;PMS5003;40450;55.848;-3.572;2023-04-23T00:27:25;24;20;
54553;PMS5003;40450;55.848;-3.572;2023-04-23T00:29:55;20;18;
54553;PMS5003;40450;55.848;-3.572;2023-04-23T00:32:25;21;17;
54553;PMS5003;40450;55.848;-3.572;2023-04-23T00:34:55;20;20;
54553;PMS5003;40450;55.848;-3.572;2023-04-23T00:37:26;19;19;
54553;PMS5003;40450;55.848;-3.572;2023-04-23T00:39:56;24;20;
54553;PMS5003;40450;55.848;-3.572;2023-04-23T00:42:27;20;20;
54553;PMS5003;40450;55.848;-3.572;2023-04-23T00:44:57;25;21;
54553;PMS5003;40450;55.848;-3.572;2023-04-23T00:47:27;18;16;
54553;PMS5003;40450;55.848;-3.572;2023-04-23T00:49:58;22;19;
54553;PMS5003;40450;55.848;-3.572;2023-04-23T00:52:28;18;16;
54553;PMS5003;40450;55.848;-3.572;2023-04-23T00:54:59;20;15;
54553;PMS5003;40450;55.848;-3.572;2023-04-23T00:57:29;23;21;
54553;PMS5003;40450;55.848;-3.572;2023-04-23T00:59:59;19;19;
54553;PMS5003;40450;55.848;-3.572;2023-04-23T01:02:29;21;16;
54553;PMS5003;40450;55.848;-3.572;2023-04-23T01:05:00;19;16;
54553;PMS5003;40450;55.848;-3.572;2023-04-23T01:07:30;13;13;
54553;PMS5003;40450;55.848;-3.572;2023-04-23T01:10:01;18;15;
54553;PMS5003;40450;55.848;-3.572;2023-04-23T01:12:31;16;15;
54553;PMS5003;40450;55.848;-3.572;2023-04-23T01:15:01;21;18;
54553;PMS5003;40450;55.848;-3.572;2023-04-23T01:17:31;13;13;
54553;PMS5003;40450;55.848;-3.572;2023-04-23T01:20:02;17;16;
54553;PMS5003;40450;55.848;-3.572;2023-04-23T01:22:33;21;18;
54553;PMS5003;40450;55.848;-3.572;2023-04-23T01:25:03;20;16;
54553;PMS5003;40450;55.848;-3.572;2023-04-23T01:27:34;18;18;
54553;PMS5003;40450;55.848;-3.572;2023-04-23T01:30:05;21;20;
54553;PMS5003;40450;55.848;-3.572;2023-04-23T01:32:35;21;18;
54553;PMS5003;40450;55.848;-3.572;2023-04-23T01:35:05;18;18;
54553;PMS5003;40450;55.848;-3.572;2023-04-23T01:37:35;18;18;
54553;PMS5003;40450;55.848;-3.572;2023-04-23T01:40:06;20;20;
54553;PMS5003;40450;55.848;-3.572;2023-04-23T01:42:37;20;18;
54553;PMS5003;40450;55.848;-3.572;2023-04-23T01:45:08;20;17;
54553;PMS5003;40450;55.848;-3.572;2023-04-23T01:47:38;28;21;
54553;PMS5003;40450;55.848;-3.572;2023-04-23T01:50:08;17;17;
54553;PMS5003;40450;55.848;-3.572;2023-04-23T01:52:38;23;19;
54553;PMS5003;40450;55.848;-3.572;2023-04-23T01:55:08;21;16;
54553;PMS5003;40450;55.848;-3.572;2023-04-23T01:57:38;17;15;
54553;PMS5003;40450;55.848;-3.572;2023-04-23T02:00:09;21;18;
54553;PMS5003;40450;55.848;-3.572;2023-04-23T02:02:39;17;14;
54553;PMS5003;40450;55.848;-3.572;2023-04-23T02:05:10;15;15;
54553;PMS5003;40450;55.848;-3.572;2023-04-23T02:07:40;18;16;
54553;PMS5003;40450;55.848;-3.572;2023-04-23T02:10:10;15;15;
54553;PMS5003;40450;55.848;-3.572;2023-04-23T02:12:41;19;18;
54553;PMS5003;40450;55.848;-3.572;2023-04-23T02:15:11;18;18;
54553;PMS5003;40450;55.848;-3.572;2023-04-23T02:17:41;23;21;
54553;PMS5003;40450;55.848;-3.572;2023-04-23T02:20:11;22;22;
54553;PMS5003;40450;55.848;-3.572;2023-04-23T02:22:42;22;20;
54553;PMS5003;40450;55.848;-3.572;2023-04-23T02:25:13;25;22;
54553;PMS5003;40450;55.848;-3.572;2023-04-23T02:27:43;20;17;
54553;PMS5003;40450;55.848;-3.572;2023-04-23T02:30:13;19;18;
54553;PMS5003;40450;55.848;-3.572;2023-04-23T02:32:43;19;17;
54553;PMS5003;40450;55.848;-3.572;2023-04-23T02:35:13;18;17;
54553;PMS5003;40450;55.848;-3.572;2023-04-23T02:37:44;20;17;
54553;PMS5003;40450;55.848;-3.572;2023-04-23T02:40:15;21;18;
54553;PMS5003;40450;55.848;-3.572;2023-04-23T02:42:45;21;20;
54553;PMS5003;40450;55.848;-3.572;2023-04-23T02:45:15;17;17;
54553;PMS5003;40450;55.848;-3.572;2023-04-23T02:47:45;17;16;
54553;PMS5003;40450;55.848;-3.572;2023-04-23T02:50:15;18;16;
54553;PMS5003;40450;55.848;-3.572;2023-04-23T02:52:46;21;19;
54553;PMS5003;40450;55.848;-3.572;2023-04-23T02:55:17;21;17;
54553;PMS5003;40450;55.848;-3.572;2023-04-23T02:57:47;16;16;
54553;PMS5003;40450;55.848;-3.572;2023-04-23T03:00:18;19;19;
54553;PMS5003;40450;55.848;-3.572;2023-04-23T03:02:48;19;19;
54553;PMS5003;40450;55.848;-3.572;2023-04-23T03:05:18;18;16;
54553;PMS5003;40450;55.848;-3.572;2023-04-23T03:07:48;20;17;
54553;PMS5003;40450;55.848;-3.572;2023-04-23T03:10:18;15;15;
54553;PMS5003;40450;55.848;-3.572;2023-04-23T03:12:49;19;18;
54553;PMS5003;40450;55.848;-3.572;2023-04-23T03:15:20;21;21;
54553;PMS5003;40450;55.848;-3.572;2023-04-23T03:17:49;19;17;
54553;PMS5003;40450;55.848;-3.572;2023-04-23T03:20:20;13;13;
54553;PMS5003;40450;55.848;-3.572;2023-04-23T03:22:50;17;16;
54553;PMS5003;40450;55.848;-3.572;2023-04-23T03:25:20;18;18;
54553;PMS5003;40450;55.848;-3.572;2023-04-23T03:27:50;21;19;
54553;PMS5003;40450;55.848;-3.572;2023-04-23T03:30:21;22;19;
54553;PMS5003;40450;55.848;-3.572;2023-04-23T03:32:52;18;17;
54553;PMS5003;40450;55.848;-3.572;2023-04-23T03:35:22;17;16;
54553;PMS5003;40450;55.848;-3.572;2023-04-23T03:37:52;17;15;
54553;PMS5003;40450;55.848;-3.572;2023-04-23T03:40:23;20;18;
54553;PMS5003;40450;55.848;-3.572;2023-04-23T03:42:53;18;16;
54553;PMS5003;40450;55.848;-3.572;2023-04-23T03:45:23;19;16;
54553;PMS5003;40450;55.848;-3.572;2023-04-23T03:47:53;18;18;
54553;PMS5003;40450;55.848;-3.572;2023-04-23T03:50:23;16;16;
54553;PMS5003;40450;55.848;-3.572;2023-04-23T03:52:53;14;14;
54553;PMS5003;40450;55.848;-3.572;2023-04-23T03:55:24;14;14;
54553;PMS5003;40450;55.848;-3.572;2023-04-23T03:57:54;17;17;
54553;PMS5003;40450;55.848;-3.572;2023-04-23T04:00:24;19;16;
54553;PMS5003;40450;55.848;-3.572;2023-04-23T04:02:55;21;20;
54553;PMS5003;40450;55.848;-3.572;2023-04-23T04:05:25;23;20;
54553;PMS5003;40450;55.848;-3.572;2023-04-23T04:07:56;18;18;
54553;PMS5003;40450;55.848;-3.572;2023-04-23T04:10:26;22;17;
54553;PMS5003;40450;55.848;-3.572;2023-04-23T04:12:56;16;15;
54553;PMS5003;40450;55.848;-3.572;2023-04-23T04:15:26;15;15;
54553;PMS5003;40450;55.848;-3.572;2023-04-23T04:17:57;16;16;
54553;PMS5003;40450;55.848;-3.572;2023-04-23T04:20:27;16;16;
54553;PMS5003;40450;55.848;-3.572;2023-04-23T04:22:57;17;16;
54553;PMS5003;40450;55.848;-3.572;2023-04-23T04:25:27;17;15;
54553;PMS5003;40450;55.848;-3.572;2023-04-23T04:27:58;19;17;
54553;PMS5003;40450;55.848;-3.572;2023-04-23T04:30:28;21;19;
54553;PMS5003;40450;55.848;-3.572;2023-04-23T04:32:58;22;19;
54553;PMS5003;40450;55.848;-3.572;2023-04-23T04:35:29;19;19;
54553;PMS5003;40450;55.848;-3.572;2023-04-23T04:37:59;16;15;
54553;PMS5003;40450;55.848;-3.572;2023-04-23T04:40:30;16;14;
54553;PMS5003;40450;55.848;-3.572;2023-04-23T04:43:00;20;17;
54553;PMS5003;40450;55.848;-3.572;2023-04-23T04:45:31;20;19;
54553;PMS5003;40450;55.848;-3.572;2023-04-23T04:48:01;23;19;
54553;PMS5003;40450;55.848;-3.572;2023-04-23T04:50:31;16;15;
54553;PMS5003;40450;55.848;-3.572;2023-04-23T04:53:02;16;16;
54553;PMS5003;40450;55.848;-3.572;2023-04-23T04:55:32;15;15;
54553;PMS5003;40450;55.848;-3.572;2023-04-23T04:58:03;19;18;
54553;PMS5003;40450;55.848;-3.572;2023-04-23T05:00:34;16;16;
54553;PMS5003;40450;55.848;-3.572;2023-04-23T05:03:04;15;15;
54553;PMS5003;40450;55.848;-3.572;2023-04-23T05:05:34;22;19;
54553;PMS5003;40450;55.848;-3.572;2023-04-23T05:08:05;20;19;
54553;PMS5003;40450;55.848;-3.572;2023-04-23T05:10:35;17;17;
54553;PMS5003;40450;55.848;-3.572;2023-04-23T05:13:05;19;18;
54553;PMS5003;40450;55.848;-3.572;2023-04-23T05:15:35;21;19;
54553;PMS5003;40450;55.848;-3.572;2023-04-23T05:18:05;16;16;
54553;PMS5003;40450;55.848;-3.572;2023-04-23T05:20:36;18;16;
54553;PMS5003;40450;55.848;-3.572;2023-04-23T05:23:06;19;19;
54553;PMS5003;40450;55.848;-3.572;2023-04-23T05:25:37;19;17;
54553;PMS5003;40450;55.848;-3.572;2023-04-23T05:28:07;17;17;
54553;PMS5003;40450;55.848;-3.572;2023-04-23T05:30:37;16;16;
54553;PMS5003;40450;55.848;-3.572;2023-04-23T05:33:08;12;12;
54553;PMS5003;40450;55.848;-3.572;2023-04-23T05:35:38;15;15;
54553;PMS5003;40450;55.848;-3.572;2023-04-23T05:38:09;20;17;
54553;PMS5003;40450;55.848;-3.572;2023-04-23T05:40:39;19;18;
54553;PMS5003;40450;55.848;-3.572;2023-04-23T05:43:10;20;20;
54553;PMS5003;40450;55.848;-3.572;2023-04-23T05:45:40;20;20;
54553;PMS5003;40450;55.848;-3.572;2023-04-23T05:48:10;21;19;
54553;PMS5003;40450;55.848;-3.572;2023-04-23T05:50:40;19;19;
54553;PMS5003;40450;55.848;-3.572;2023-04-23T05:53:10;17;17;
54553;PMS5003;40450;55.848;-3.572;2023-04-23T05:55:41;23;19;
54553;PMS5003;40450;55.848;-3.572;2023-04-23T05:58:11;20;19;
54553;PMS5003;40450;55.848;-3.572;2023-04-23T06:00:41;24;19;
54553;PMS5003;40450;55.848;-3.572;2023-04-23T06:03:12;18;18;
54553;PMS5003;40450;55.848;-3.572;2023-04-23T06:05:42;21;20;
54553;PMS5003;40450;55.848;-3.572;2023-04-23T06:08:12;18;18;
54553;PMS5003;40450;55.848;-3.572;2023-04-23T06:10:43;25;23;
54553;PMS5003;40450;55.848;-3.572;2023-04-23T06:13:13;25;20;
54553;PMS5003;40450;55.848;-3.572;2023-04-23T06:15:43;21;21;
54553;PMS5003;40450;55.848;-3.572;2023-04-23T06:18:14;21;20;
54553;PMS5003;40450;55.848;-3.572;2023-04-23T06:20:44;22;19;
54553;PMS5003;40450;55.848;-3.572;2023-04-23T06:23:15;22;20;
54553;PMS5003;40450;55.848;-3.572;2023-04-23T06:25:45;25;22;
54553;PMS5003;40450;55.848;-3.572;2023-04-23T06:28:16;21;19;
54553;PMS5003;40450;55.848;-3.572;2023-04-23T06:30:47;26;23;
54553;PMS5003;40450;55.848;-3.572;2023-04-23T06:33:17;25;23;
54553;PMS5003;40450;55.848;-3.572;2023-04-23T06:35:47;21;21;
54553;PMS5003;40450;55.848;-3.572;2023-04-23T06:38:18;18;18;
54553;PMS5003;40450;55.848;-3.572;2023-04-23T06:40:48;22;22;
54553;PMS5003;40450;55.848;-3.572;2023-04-23T06:43:19;20;18;
54553;PMS5003;40450;55.848;-3.572;2023-04-23T06:45:49;27;24;
54553;PMS5003;40450;55.848;-3.572;2023-04-23T06:48:19;19;17;
54553;PMS5003;40450;55.848;-3.572;2023-04-23T06:50:49;22;20;
54553;PMS5003;40450;55.848;-3.572;2023-04-23T06:53:20;22;21;
54553;PMS5003;40450;55.848;-3.572;2023-04-23T06:55:50;20;17;
54553;PMS5003;40450;55.848;-3.572;2023-04-23T06:58:21;21;18;
54553;PMS5003;40450;55.848;-3.572;2023-04-23T07:00:51;19;19;
54553;PMS5003;40450;55.848;-3.572;2023-04-23T07:03:22;17;17;
54553;PMS5003;40450;55.848;-3.572;2023-04-23T07:05:52;22;18;
54553;PMS5003;40450;55.848;-3.572;2023-04-23T07:08:23;18;16;
54553;PMS5003;40450;55.848;-3.572;2023-04-23T07:10:53;23;20;
54553;PMS5003;40450;55.848;-3.572;2023-04-23T07:13:24;21;18;
54553;PMS5003;40450;55.848;-3.572;2023-04-23T07:15:54;19;16;
54553;PMS5003;40450;55.848;-3.572;2023-04-23T07:18:24;19;16;
54553;PMS5003;40450;55.848;-3.572;2023-04-23T07:20:54;14;12;
54553;PMS5003;40450;55.848;-3.572;2023-04-23T07:23:25;14;14;
54553;PMS5003;40450;55.848;-3.572;2023-04-23T07:25:55;13;13;
54553;PMS5003;40450;55.848;-3.572;2023-04-23T07:28:26;14;13;
54553;PMS5003;40450;55.848;-3.572;2023-04-23T07:30:57;16;16;
54553;PMS5003;40450;55.848;-3.572;2023-04-23T07:33:27;14;13;
54553;PMS5003;40450;55.848;-3.572;2023-04-23T07:35:58;20;16;
54553;PMS5003;40450;55.848;-3.572;2023-04-23T07:38:28;18;16;
54553;PMS5003;40450;55.848;-3.572;2023-04-23T07:40:58;18;15;
54553;PMS5003;40450;55.848;-3.572;2023-04-23T07:43:28;15;13;
54553;PMS5003;40450;55.848;-3.572;2023-04-23T07:45:59;14;13;
54553;PMS5003;40450;55.848;-3.572;2023-04-23T07:48:29;13;13;
54553;PMS5003;40450;55.848;-3.572;2023-04-23T07:50:59;13;12;
54553;PMS5003;40450;55.848;-3.572;2023-04-23T07:53:30;14;14;
54553;PMS5003;40450;55.848;-3.572;2023-04-23T07:56:00;12;12;
54553;PMS5003;40450;55.848;-3.572;2023-04-23T07:58:30;17;13;
54553;PMS5003;40450;55.848;-3.572;2023-04-23T08:01:00;15;13;
54553;PMS5003;40450;55.848;-3.572;2023-04-23T08:03:30;10;10;
54553;PMS5003;40450;55.848;-3.572;2023-04-23T08:06:01;13;11;
54553;PMS5003;40450;55.848;-3.572;2023-04-23T08:08:32;10;10;
54553;PMS5003;40450;55.848;-3.572;2023-04-23T08:11:02;11;10;
54553;PMS5003;40450;55.848;-3.572;2023-04-23T08:13:32;10;10;
54553;PMS5003;40450;55.848;-3.572;2023-04-23T08:16:03;13;11;
54553;PMS5003;40450;55.848;-3.572;2023-04-23T08:18:33;13;12;
54553;PMS5003;40450;55.848;-3.572;2023-04-23T08:21:03;14;11;
54553;PMS5003;40450;55.848;-3.572;2023-04-23T08:23:33;14;12;
54553;PMS5003;40450;55.848;-3.572;2023-04-23T08:26:04;10;10;
54553;PMS5003;40450;55.848;-3.572;2023-04-23T08:28:34;12;10;
54553;PMS5003;40450;55.848;-3.572;2023-04-23T08:31:05;13;12;
54553;PMS5003;40450;55.848;-3.572;2023-04-23T08:33:35;18;14;
54553;PMS5003;40450;55.848;-3.572;2023-04-23T08:36:05;14;12;
54553;PMS5003;40450;55.848;-3.572;2023-04-23T08:38:35;13;11;
54553;PMS5003;40450;55.848;-3.572;2023-04-23T08:41:06;8;8;
54553;PMS5003;40450;55.848;-3.572;2023-04-23T08:43:37;12;12;
54553;PMS5003;40450;55.848;-3.572;2023-04-23T08:46:07;15;13;
54553;PMS5003;40450;55.848;-3.572;2023-04-23T08:48:37;12;9;
54553;PMS5003;40450;55.848;-3.572;2023-04-23T08:51:07;10;10;
54553;PMS5003;40450;55.848;-3.572;2023-04-23T08:53:38;10;10;
54553;PMS5003;40450;55.848;-3.572;2023-04-23T08:56:08;10;10;
54553;PMS5003;40450;55.848;-3.572;2023-04-23T08:58:38;9;9;
54553;PMS5003;40450;55.848;-3.572;2023-04-23T09:01:09;12;10;
54553;PMS5003;40450;55.848;-3.572;2023-04-23T09:03:39;10;10;
54553;PMS5003;40450;55.848;-3.572;2023-04-23T09:06:09;14;13;
54553;PMS5003;40450;55.848;-3.572;2023-04-23T09:08:39;14;12;
54553;PMS5003;40450;55.848;-3.572;2023-04-23T09:11:10;12;12;
54553;PMS5003;40450;55.848;-3.572;2023-04-23T09:13:40;11;9;
54553;PMS5003;40450;55.848;-3.572;2023-04-23T09:16:10;13;11;
54553;PMS5003;40450;55.848;-3.572;2023-04-23T09:18:40;13;10;
54553;PMS5003;40450;55.848;-3.572;2023-04-23T09:21:11;12;11;
54553;PMS5003;40450;55.848;-3.572;2023-04-23T09:23:42;10;9;
54553;PMS5003;40450;55.848;-3.572;2023-04-23T09:26:13;13;12;
54553;PMS5003;40450;55.848;-3.572;2023-04-23T09:28:42;11;11;
54553;PMS5003;40450;55.848;-3.572;2023-04-23T09:31:12;15;13;
54553;PMS5003;40450;55.848;-3.572;2023-04-23T09:33:42;13;11;
54553;PMS5003;40450;55.848;-3.572;2023-04-23T09:36:13;12;10;
54553;PMS5003;40450;55.848;-3.572;2023-04-23T09:38:43;13;11;
54553;PMS5003;40450;55.848;-3.572;2023-04-23T09:43:46;9;8;
54553;PMS5003;40450;55.848;-3.572;2023-04-23T09:46:14;9;9;
54553;PMS5003;40450;55.848;-3.572;2023-04-23T09:48:44;10;8;
54553;PMS5003;40450;55.848;-3.572;2023-04-23T09:51:15;11;11;
54553;PMS5003;40450;55.848;-3.572;2023-04-23T09:53:45;14;12;
54553;PMS5003;40450;55.848;-3.572;2023-04-23T09:56:18;10;10;
54553;PMS5003;40450;55.848;-3.572;2023-04-23T09:58:46;11;8;
54553;PMS5003;40450;55.848;-3.572;2023-04-23T10:01:17;9;9;
54553;PMS5003;40450;55.848;-3.572;2023-04-23T10:03:48;9;8;
54553;PMS5003;40450;55.848;-3.572;2023-04-23T10:06:18;10;10;
54553;PMS5003;40450;55.848;-3.572;2023-04-23T10:08:48;10;10;
54553;PMS5003;40450;55.848;-3.572;2023-04-23T10:11:19;11;11;
54553;PMS5003;40450;55.848;-3.572;2023-04-23T10:13:49;13;11;
54553;PMS5003;40450;55.848;-3.572;2023-04-23T10:16:20;10;10;
54553;PMS5003;40450;55.848;-3.572;2023-04-23T10:18:50;9;9;
54553;PMS5003;40450;55.848;-3.572;2023-04-23T10:21:20;12;9;
54553;PMS5003;40450;55.848;-3.572;2023-04-23T10:23:51;15;12;
54553;PMS5003;40450;55.848;-3.572;2023-04-23T10:26:21;9;8;
54553;PMS5003;40450;55.848;-3.572;2023-04-23T10:28:53;12;12;
54553;PMS5003;40450;55.848;-3.572;2023-04-23T10:31:22;12;11;
54553;PMS5003;40450;55.848;-3.572;2023-04-23T10:33:52;10;10;
54553;PMS5003;40450;55.848;-3.572;2023-04-23T10:36:23;11;9;
54553;PMS5003;40450;55.848;-3.572;2023-04-23T10:38:53;11;10;
54553;PMS5003;40450;55.848;-3.572;2023-04-23T10:41:24;12;12;
54553;PMS5003;40450;55.848;-3.572;2023-04-23T10:43:54;11;10;
54553;PMS5003;40450;55.848;-3.572;2023-04-23T10:46:28;8;8;
54553;PMS5003;40450;55.848;-3.572;2023-04-23T10:53:56;11;11;
54553;PMS5003;40450;55.848;-3.572;2023-04-23T10:56:26;13;13;
54553;PMS5003;40450;55.848;-3.572;2023-04-23T10:58:56;11;11;
54553;PMS5003;40450;55.848;-3.572;2023-04-23T11:01:27;8;8;
54553;PMS5003;40450;55.848;-3.572;2023-04-23T11:03:57;14;9;
54553;PMS5003;40450;55.848;-3.572;2023-04-23T11:08:58;8;8;
54553;PMS5003;40450;55.848;-3.572;2023-04-23T11:13:58;7;7;
54553;PMS5003;40450;55.848;-3.572;2023-04-23T11:16:29;11;10;
54553;PMS5003;40450;55.848;-3.572;2023-04-23T11:19:00;10;9;
54553;PMS5003;40450;55.848;-3.572;2023-04-23T11:24:00;11;10;
54553;PMS5003;40450;55.848;-3.572;2023-04-23T11:26:30;5;4;
54553;PMS5003;40450;55.848;-3.572;2023-04-23T11:29:00;7;7;
54553;PMS5003;40450;55.848;-3.572;2023-04-23T11:31:31;8;8;
54553;PMS5003;40450;55.848;-3.572;2023-04-23T11:34:02;14;12;
54553;PMS5003;40450;55.848;-3.572;2023-04-23T11:36:32;8;6;
54553;PMS5003;40450;55.848;-3.572;2023-04-23T11:39:03;6;6;
54553;PMS5003;40450;55.848;-3.572;2023-04-23T11:41:33;7;7;
54553;PMS5003;40450;55.848;-3.572;2023-04-23T11:44:03;8;7;
54553;PMS5003;40450;55.848;-3.572;2023-04-23T11:46:34;8;8;
54553;PMS5003;40450;55.848;-3.572;2023-04-23T11:49:04;11;11;
54553;PMS5003;40450;55.848;-3.572;2023-04-23T11:51:34;7;7;
54553;PMS5003;40450;55.848;-3.572;2023-04-23T11:54:05;8;8;
54553;PMS5003;40450;55.848;-3.572;2023-04-23T11:56:35;8;8;
54553;PMS5003;40450;55.848;-3.572;2023-04-23T11:59:06;9;8;
54553;PMS5003;40450;55.848;-3.572;2023-04-23T12:01:39;8;7;
54553;PMS5003;40450;55.848;-3.572;2023-04-23T12:04:10;8;8;
54553;PMS5003;40450;55.848;-3.572;2023-04-23T12:06:37;6;6;
54553;PMS5003;40450;55.848;-3.572;2023-04-23T12:09:07;7;6;
54553;PMS5003;40450;55.848;-3.572;2023-04-23T12:11:38;4;3;
54553;PMS5003;40450;55.848;-3.572;2023-04-23T12:14:08;7;7;
54553;PMS5003;40450;55.848;-3.572;2023-04-23T12:16:39;7;7;
54553;PMS5003;40450;55.848;-3.572;2023-04-23T12:19:09;5;5;
54553;PMS5003;40450;55.848;-3.572;2023-04-23T12:24:09;6;6;
54553;PMS5003;40450;55.848;-3.572;2023-04-23T12:26:40;8;8;
54553;PMS5003;40450;55.848;-3.572;2023-04-23T12:29:11;7;7;
54553;PMS5003;40450;55.848;-3.572;2023-04-23T12:31:41;10;8;
54553;PMS5003;40450;55.848;-3.572;2023-04-23T12:34:12;9;8;
54553;PMS5003;40450;55.848;-3.572;2023-04-23T12:36:43;7;7;
54553;PMS5003;40450;55.848;-3.572;2023-04-23T12:41:42;9;9;
54553;PMS5003;40450;55.848;-3.572;2023-04-23T12:44:13;10;9;
54553;PMS5003;40450;55.848;-3.572;2023-04-23T12:46:43;8;8;
54553;PMS5003;40450;55.848;-3.572;2023-04-23T12:49:13;9;8;
54553;PMS5003;40450;55.848;-3.572;2023-04-23T12:51:44;9;9;
54553;PMS5003;40450;55.848;-3.572;2023-04-23T12:54:14;9;7;
54553;PMS5003;40450;55.848;-3.572;2023-04-23T12:56:45;11;9;
54553;PMS5003;40450;55.848;-3.572;2023-04-23T12:59:15;9;8;
54553;PMS5003;40450;55.848;-3.572;2023-04-23T13:01:46;8;8;
54553;PMS5003;40450;55.848;-3.572;2023-04-23T13:04:16;12;10;
54553;PMS5003;40450;55.848;-3.572;2023-04-23T13:06:46;11;9;
54553;PMS5003;40450;55.848;-3.572;2023-04-23T13:09:17;11;11;
54553;PMS5003;40450;55.848;-3.572;2023-04-23T13:11:52;11;11;
54553;PMS5003;40450;55.848;-3.572;2023-04-23T13:14:17;12;11;
54553;PMS5003;40450;55.848;-3.572;2023-04-23T13:16:47;11;9;
54553;PMS5003;40450;55.848;-3.572;2023-04-23T13:19:18;9;8;
54553;PMS5003;40450;55.848;-3.572;2023-04-23T13:21:48;15;12;
54553;PMS5003;40450;55.848;-3.572;2023-04-23T13:24:19;14;11;
54553;PMS5003;40450;55.848;-3.572;2023-04-23T13:26:49;20;16;
54553;PMS5003;40450;55.848;-3.572;2023-04-23T13:29:19;21;21;
54553;PMS5003;40450;55.848;-3.572;2023-04-23T13:31:50;15;15;
54553;PMS5003;40450;55.848;-3.572;2023-04-23T13:34:20;13;10;
54553;PMS5003;40450;55.848;-3.572;2023-04-23T13:36:50;11;11;
54553;PMS5003;40450;55.848;-3.572;2023-04-23T13:39:20;9;9;
54553;PMS5003;40450;55.848;-3.572;2023-04-23T13:41:50;11;10;
54553;PMS5003;40450;55.848;-3.572;2023-04-23T13:44:21;15;14;
54553;PMS5003;40450;55.848;-3.572;2023-04-23T13:46:51;11;11;
54553;PMS5003;40450;55.848;-3.572;2023-04-23T13:49:21;16;14;
54553;PMS5003;40450;55.848;-3.572;2023-04-23T13:51:53;13;9;
54553;PMS5003;40450;55.848;-3.572;2023-04-23T13:54:22;11;11;
54553;PMS5003;40450;55.848;-3.572;2023-04-23T13:56:53;10;10;
54553;PMS5003;40450;55.848;-3.572;2023-04-23T13:59:23;6;6;
54553;PMS5003;40450;55.848;-3.572;2023-04-23T14:01:54;9;9;
54553;PMS5003;40450;55.848;-3.572;2023-04-23T14:04:24;12;10;
54553;PMS5003;40450;55.848;-3.572;2023-04-23T14:06:55;18;16;
54553;PMS5003;40450;55.848;-3.572;2023-04-23T14:09:25;10;8;
54553;PMS5003;40450;55.848;-3.572;2023-04-23T14:11:56;15;12;
54553;PMS5003;40450;55.848;-3.572;2023-04-23T14:14:26;17;17;
54553;PMS5003;40450;55.848;-3.572;2023-04-23T14:16:57;13;11;
54553;PMS5003;40450;55.848;-3.572;2023-04-23T14:19:27;10;10;
54553;PMS5003;40450;55.848;-3.572;2023-04-23T14:21:57;9;8;
54553;PMS5003;40450;55.848;-3.572;2023-04-23T14:24:28;10;10;
54553;PMS5003;40450;55.848;-3.572;2023-04-23T14:26:57;9;8;
54553;PMS5003;40450;55.848;-3.572;2023-04-23T14:29:29;15;12;
54553;PMS5003;40450;55.848;-3.572;2023-04-23T14:31:58;14;12;
54553;PMS5003;40450;55.848;-3.572;2023-04-23T14:34:28;12;12;
54553;PMS5003;40450;55.848;-3.572;2023-04-23T14:36:59;24;19;
54553;PMS5003;40450;55.848;-3.572;2023-04-23T14:39:29;14;14;
54553;PMS5003;40450;55.848;-3.572;2023-04-23T14:41:59;13;13;
54553;PMS5003;40450;55.848;-3.572;2023-04-23T14:44:29;15;15;
54553;PMS5003;40450;55.848;-3.572;2023-04-23T14:47:00;12;11;
54553;PMS5003;40450;55.848;-3.572;2023-04-23T14:49:30;8;6;
54553;PMS5003;40450;55.848;-3.572;2023-04-23T14:52:01;6;6;
54553;PMS5003;40450;55.848;-3.572;2023-04-23T14:54:31;8;8;
54553;PMS5003;40450;55.848;-3.572;2023-04-23T14:57:01;7;7;
54553;PMS5003;40450;55.848;-3.572;2023-04-23T14:59:32;6;6;
54553;PMS5003;40450;55.848;-3.572;2023-04-23T15:02:02;6;6;
54553;PMS5003;40450;55.848;-3.572;2023-04-23T15:04:33;8;8;
54553;PMS5003;40450;55.848;-3.572;2023-04-23T15:07:03;7;7;
54553;PMS5003;40450;55.848;-3.572;2023-04-23T15:09:33;10;10;
54553;PMS5003;40450;55.848;-3.572;2023-04-23T15:12:04;9;9;
54553;PMS5003;40450;55.848;-3.572;2023-04-23T15:14:36;6;6;
54553;PMS5003;40450;55.848;-3.572;2023-04-23T15:17:04;5;5;
54553;PMS5003;40450;55.848;-3.572;2023-04-23T15:19:35;6;6;
54553;PMS5003;40450;55.848;-3.572;2023-04-23T15:22:05;4;4;
54553;PMS5003;40450;55.848;-3.572;2023-04-23T15:24:35;7;6;
54553;PMS5003;40450;55.848;-3.572;2023-04-23T15:27:06;5;5;
54553;PMS5003;40450;55.848;-3.572;2023-04-23T15:29:36;5;5;
54553;PMS5003;40450;55.848;-3.572;2023-04-23T15:32:06;7;7;
54553;PMS5003;40450;55.848;-3.572;2023-04-23T15:34:36;13;10;
54553;PMS5003;40450;55.848;-3.572;2023-04-23T15:37:07;20;20;
54553;PMS5003;40450;55.848;-3.572;2023-04-23T15:39:38;12;11;
54553;PMS5003;40450;55.848;-3.572;2023-04-23T15:42:08;10;10;
54553;PMS5003;40450;55.848;-3.572;2023-04-23T15:44:38;6;6;
54553;PMS5003;40450;55.848;-3.572;2023-04-23T15:47:09;6;5;
54553;PMS5003;40450;55.848;-3.572;2023-04-23T15:49:39;6;6;
54553;PMS5003;40450;55.848;-3.572;2023-04-23T15:52:10;5;5;
54553;PMS5003;40450;55.848;-3.572;2023-04-23T15:54:40;4;4;
54553;PMS5003;40450;55.848;-3.572;2023-04-23T15:57:11;5;5;
54553;PMS5003;40450;55.848;-3.572;2023-04-23T15:59:41;5;4;
54553;PMS5003;40450;55.848;-3.572;2023-04-23T16:02:11;3;3;
54553;PMS5003;40450;55.848;-3.572;2023-04-23T16:04:42;3;3;
54553;PMS5003;40450;55.848;-3.572;2023-04-23T16:07:12;2;2;
54553;PMS5003;40450;55.848;-3.572;2023-04-23T16:09:43;4;4;
54553;PMS5003;40450;55.848;-3.572;2023-04-23T16:12:13;3;3;
54553;PMS5003;40450;55.848;-3.572;2023-04-23T16:14:43;6;5;
54553;PMS5003;40450;55.848;-3.572;2023-04-23T16:17:14;3;3;
54553;PMS5003;40450;55.848;-3.572;2023-04-23T16:19:44;3;3;
54553;PMS5003;40450;55.848;-3.572;2023-04-23T16:22:15;4;2;
54553;PMS5003;40450;55.848;-3.572;2023-04-23T16:24:45;5;4;
54553;PMS5003;40450;55.848;-3.572;2023-04-23T16:27:15;3;3;
54553;PMS5003;40450;55.848;-3.572;2023-04-23T16:29:46;4;4;
54553;PMS5003;40450;55.848;-3.572;2023-04-23T16:32:16;5;5;
54553;PMS5003;40450;55.848;-3.572;2023-04-23T16:34:47;7;7;
54553;PMS5003;40450;55.848;-3.572;2023-04-23T16:37:17;15;11;
54553;PMS5003;40450;55.848;-3.572;2023-04-23T16:39:47;17;16;
54553;PMS5003;40450;55.848;-3.572;2023-04-23T16:42:17;11;11;
54553;PMS5003;40450;55.848;-3.572;2023-04-23T16:44:48;21;20;
54553;PMS5003;40450;55.848;-3.572;2023-04-23T16:47:19;9;9;
54553;PMS5003;40450;55.848;-3.572;2023-04-23T16:49:49;7;5;